sensor_id;sensor_type;location;lat;lon;timestamp;temperature;humidity
19437;DHT22;9854;50.968;4.168;2024-03-08T00:00:32;6.60;99.90
19437;DHT22;9854;50.968;4.168;2024-03-08T00:02:58;6.60;99.90
19437;DHT22;9854;50.968;4.168;2024-03-08T00:05:24;6.60;99.90
19437;DHT22;9854;50.968;4.168;2024-03-08T00:07:49;6.60;99.90
19437;DHT22;9854;50.968;4.168;2024-03-08T00:10:15;6.60;99.90
19437;DHT22;9854;50.968;4.168;2024-03-08T00:12:44;6.60;99.90
19437;DHT22;9854;50.968;4.168;2024-03-08T00:15:13;6.50;99.90
19437;DHT22;9854;50.968;4.168;2024-03-08T00:17:40;6.50;99.90
19437;DHT22;9854;50.968;4.168;2024-03-08T00:20:08;6.50;99.90
19437;DHT22;9854;50.968;4.168;2024-03-08T00:22:37;6.40;99.90
19437;DHT22;9854;50.968;4.168;2024-03-08T00:25:04;6.40;99.90
19437;DHT22;9854;50.968;4.168;2024-03-08T00:27:30;6.40;99.90
19437;DHT22;9854;50.968;4.168;2024-03-08T00:29:59;6.40;99.90
19437;DHT22;9854;50.968;4.168;2024-03-08T00:32:26;6.40;99.90
19437;DHT22;9854;50.968;4.168;2024-03-08T00:34:53;6.40;99.90
19437;DHT22;9854;50.968;4.168;2024-03-08T00:37:20;6.30;99.90
19437;DHT22;9854;50.968;4.168;2024-03-08T00:39:50;6.30;99.90
19437;DHT22;9854;50.968;4.168;2024-03-08T00:42:16;6.30;99.90
19437;DHT22;9854;50.968;4.168;2024-03-08T00:44:42;6.30;99.90
19437;DHT22;9854;50.968;4.168;2024-03-08T00:47:11;6.30;99.90
19437;DHT22;9854;50.968;4.168;2024-03-08T00:49:37;6.30;99.90
19437;DHT22;9854;50.968;4.168;2024-03-08T00:52:06;6.30;99.90
19437;DHT22;9854;50.968;4.168;2024-03-08T00:54:34;6.30;99.90
19437;DHT22;9854;50.968;4.168;2024-03-08T00:57:01;6.20;99.90
19437;DHT22;9854;50.968;4.168;2024-03-08T00:59:29;6.20;99.90
19437;DHT22;9854;50.968;4.168;2024-03-08T01:01:54;6.20;99.90
19437;DHT22;9854;50.968;4.168;2024-03-08T01:04:23;6.20;99.90
19437;DHT22;9854;50.968;4.168;2024-03-08T01:06:53;6.10;99.90
19437;DHT22;9854;50.968;4.168;2024-03-08T01:09:19;6.20;99.90
19437;DHT22;9854;50.968;4.168;2024-03-08T01:11:47;6.20;99.90
19437;DHT22;9854;50.968;4.168;2024-03-08T01:14:13;6.10;99.90
19437;DHT22;9854;50.968;4.168;2024-03-08T01:16:41;6.10;99.90
19437;DHT22;9854;50.968;4.168;2024-03-08T01:19:08;6.10;99.90
19437;DHT22;9854;50.968;4.168;2024-03-08T01:21:36;6.10;99.90
19437;DHT22;9854;50.968;4.168;2024-03-08T01:24:04;6.10;99.90
19437;DHT22;9854;50.968;4.168;2024-03-08T01:26:32;6.10;99.90
19437;DHT22;9854;50.968;4.168;2024-03-08T01:29:02;6.10;99.90
19437;DHT22;9854;50.968;4.168;2024-03-08T01:31:31;6.00;99.90
19437;DHT22;9854;50.968;4.168;2024-03-08T01:33:58;6.00;99.90
19437;DHT22;9854;50.968;4.168;2024-03-08T01:36:24;6.00;99.90
19437;DHT22;9854;50.968;4.168;2024-03-08T01:38:50;6.00;99.90
19437;DHT22;9854;50.968;4.168;2024-03-08T01:41:16;6.00;99.90
19437;DHT22;9854;50.968;4.168;2024-03-08T01:43:43;6.00;99.90
19437;DHT22;9854;50.968;4.168;2024-03-08T01:46:10;6.00;99.90
19437;DHT22;9854;50.968;4.168;2024-03-08T01:48:41;6.00;99.90
19437;DHT22;9854;50.968;4.168;2024-03-08T01:51:08;6.00;99.90
19437;DHT22;9854;50.968;4.168;2024-03-08T01:53:34;6.00;99.90
19437;DHT22;9854;50.968;4.168;2024-03-08T01:56:01;5.90;99.90
19437;DHT22;9854;50.968;4.168;2024-03-08T01:58:29;5.90;99.90
19437;DHT22;9854;50.968;4.168;2024-03-08T02:00:56;5.90;99.90
19437;DHT22;9854;50.968;4.168;2024-03-08T02:03:24;5.90;99.90
19437;DHT22;9854;50.968;4.168;2024-03-08T02:05:50;5.90;99.90
19437;DHT22;9854;50.968;4.168;2024-03-08T02:08:20;5.90;99.90
19437;DHT22;9854;50.968;4.168;2024-03-08T02:10:49;5.90;99.90
19437;DHT22;9854;50.968;4.168;2024-03-08T02:13:15;5.80;99.90
19437;DHT22;9854;50.968;4.168;2024-03-08T02:16:10;5.90;99.90
19437;DHT22;9854;50.968;4.168;2024-03-08T02:18:36;5.80;99.90
19437;DHT22;9854;50.968;4.168;2024-03-08T02:21:05;5.80;99.90
19437;DHT22;9854;50.968;4.168;2024-03-08T02:23:32;5.90;99.90
19437;DHT22;9854;50.968;4.168;2024-03-08T02:25:58;5.90;99.90
19437;DHT22;9854;50.968;4.168;2024-03-08T02:28:25;5.80;99.90
19437;DHT22;9854;50.968;4.168;2024-03-08T02:30:51;5.80;99.90
19437;DHT22;9854;50.968;4.168;2024-03-08T02:33:20;5.80;99.90
19437;DHT22;9854;50.968;4.168;2024-03-08T02:35:48;5.80;99.90
19437;DHT22;9854;50.968;4.168;2024-03-08T02:38:15;5.80;99.90
19437;DHT22;9854;50.968;4.168;2024-03-08T02:40:42;5.80;99.90
19437;DHT22;9854;50.968;4.168;2024-03-08T02:43:09;5.70;99.90
19437;DHT22;9854;50.968;4.168;2024-03-08T02:45:35;5.70;99.90
19437;DHT22;9854;50.968;4.168;2024-03-08T02:48:01;5.70;99.90
19437;DHT22;9854;50.968;4.168;2024-03-08T02:50:27;5.70;99.90
19437;DHT22;9854;50.968;4.168;2024-03-08T02:52:52;5.60;99.90
19437;DHT22;9854;50.968;4.168;2024-03-08T02:55:18;5.70;99.90
19437;DHT22;9854;50.968;4.168;2024-03-08T02:57:45;5.60;99.90
19437;DHT22;9854;50.968;4.168;2024-03-08T03:00:13;5.60;99.90
19437;DHT22;9854;50.968;4.168;2024-03-08T03:02:39;5.60;99.90
19437;DHT22;9854;50.968;4.168;2024-03-08T03:05:05;5.60;99.90
19437;DHT22;9854;50.968;4.168;2024-03-08T03:07:35;5.60;99.90
19437;DHT22;9854;50.968;4.168;2024-03-08T03:10:03;5.60;99.90
19437;DHT22;9854;50.968;4.168;2024-03-08T03:12:29;5.50;99.90
19437;DHT22;9854;50.968;4.168;2024-03-08T03:14:56;5.50;99.90
19437;DHT22;9854;50.968;4.168;2024-03-08T03:17:23;5.40;99.90
19437;DHT22;9854;50.968;4.168;2024-03-08T03:19:50;5.40;99.90
19437;DHT22;9854;50.968;4.168;2024-03-08T03:22:18;5.40;99.90
19437;DHT22;9854;50.968;4.168;2024-03-08T03:24:47;5.50;99.90
19437;DHT22;9854;50.968;4.168;2024-03-08T03:27:14;5.40;99.90
19437;DHT22;9854;50.968;4.168;2024-03-08T03:29:43;5.40;99.90
19437;DHT22;9854;50.968;4.168;2024-03-08T03:32:13;5.40;99.90
19437;DHT22;9854;50.968;4.168;2024-03-08T03:34:39;5.30;99.90
19437;DHT22;9854;50.968;4.168;2024-03-08T03:37:06;5.30;99.90
19437;DHT22;9854;50.968;4.168;2024-03-08T03:39:40;5.30;99.90
19437;DHT22;9854;50.968;4.168;2024-03-08T03:42:18;5.30;99.90
19437;DHT22;9854;50.968;4.168;2024-03-08T03:44:45;5.20;99.90
19437;DHT22;9854;50.968;4.168;2024-03-08T03:47:11;5.20;99.90
19437;DHT22;9854;50.968;4.168;2024-03-08T03:49:36;5.20;99.90
19437;DHT22;9854;50.968;4.168;2024-03-08T03:52:02;5.20;99.90
19437;DHT22;9854;50.968;4.168;2024-03-08T03:54:31;5.00;99.90
19437;DHT22;9854;50.968;4.168;2024-03-08T03:56:59;5.00;99.90
19437;DHT22;9854;50.968;4.168;2024-03-08T03:59:29;5.10;99.90
19437;DHT22;9854;50.968;4.168;2024-03-08T04:01:54;5.00;99.90
19437;DHT22;9854;50.968;4.168;2024-03-08T04:04:21;5.00;99.90
19437;DHT22;9854;50.968;4.168;2024-03-08T04:06:47;4.90;99.90
19437;DHT22;9854;50.968;4.168;2024-03-08T04:09:13;4.90;99.90
19437;DHT22;9854;50.968;4.168;2024-03-08T04:11:39;5.00;99.90
19437;DHT22;9854;50.968;4.168;2024-03-08T04:14:05;5.00;99.90
19437;DHT22;9854;50.968;4.168;2024-03-08T04:16:32;5.00;99.90
19437;DHT22;9854;50.968;4.168;2024-03-08T04:19:00;5.00;99.90
19437;DHT22;9854;50.968;4.168;2024-03-08T04:21:30;5.00;99.90
19437;DHT22;9854;50.968;4.168;2024-03-08T04:23:56;5.00;99.90
19437;DHT22;9854;50.968;4.168;2024-03-08T04:26:22;4.90;99.90
19437;DHT22;9854;50.968;4.168;2024-03-08T04:28:48;4.90;99.90
19437;DHT22;9854;50.968;4.168;2024-03-08T04:31:15;4.90;99.90
19437;DHT22;9854;50.968;4.168;2024-03-08T04:33:41;4.90;99.90
19437;DHT22;9854;50.968;4.168;2024-03-08T04:36:09;5.00;99.90
19437;DHT22;9854;50.968;4.168;2024-03-08T04:38:41;4.90;99.90
19437;DHT22;9854;50.968;4.168;2024-03-08T04:41:07;4.90;99.90
19437;DHT22;9854;50.968;4.168;2024-03-08T04:43:34;4.90;99.90
19437;DHT22;9854;50.968;4.168;2024-03-08T04:46:00;4.90;99.90
19437;DHT22;9854;50.968;4.168;2024-03-08T04:48:29;4.80;99.90
19437;DHT22;9854;50.968;4.168;2024-03-08T04:50:57;4.80;99.90
19437;DHT22;9854;50.968;4.168;2024-03-08T04:53:23;4.80;99.90
19437;DHT22;9854;50.968;4.168;2024-03-08T04:55:49;4.80;99.90
19437;DHT22;9854;50.968;4.168;2024-03-08T04:58:14;4.80;99.90
19437;DHT22;9854;50.968;4.168;2024-03-08T05:00:41;4.80;99.90
19437;DHT22;9854;50.968;4.168;2024-03-08T05:03:06;4.80;99.90
19437;DHT22;9854;50.968;4.168;2024-03-08T05:05:36;4.80;99.90
19437;DHT22;9854;50.968;4.168;2024-03-08T05:08:02;4.80;99.90
19437;DHT22;9854;50.968;4.168;2024-03-08T05:10:28;4.80;99.90
19437;DHT22;9854;50.968;4.168;2024-03-08T05:12:54;4.80;99.90
19437;DHT22;9854;50.968;4.168;2024-03-08T05:15:19;4.80;99.90
19437;DHT22;9854;50.968;4.168;2024-03-08T05:17:46;4.80;99.90
19437;DHT22;9854;50.968;4.168;2024-03-08T05:20:12;4.70;99.90
19437;DHT22;9854;50.968;4.168;2024-03-08T05:22:39;4.70;99.90
19437;DHT22;9854;50.968;4.168;2024-03-08T05:25:06;4.70;99.90
19437;DHT22;9854;50.968;4.168;2024-03-08T05:27:34;4.60;99.90
19437;DHT22;9854;50.968;4.168;2024-03-08T05:30:02;4.60;99.90
19437;DHT22;9854;50.968;4.168;2024-03-08T05:32:32;4.50;99.90
19437;DHT22;9854;50.968;4.168;2024-03-08T05:34:57;4.50;99.90
19437;DHT22;9854;50.968;4.168;2024-03-08T05:37:23;4.60;99.90
19437;DHT22;9854;50.968;4.168;2024-03-08T05:39:49;4.50;99.90
19437;DHT22;9854;50.968;4.168;2024-03-08T05:42:14;4.50;99.90
19437;DHT22;9854;50.968;4.168;2024-03-08T05:44:40;4.50;99.90
19437;DHT22;9854;50.968;4.168;2024-03-08T05:47:08;4.50;99.90
19437;DHT22;9854;50.968;4.168;2024-03-08T05:49:34;4.50;99.90
19437;DHT22;9854;50.968;4.168;2024-03-08T05:52:00;4.50;99.90
19437;DHT22;9854;50.968;4.168;2024-03-08T05:54:25;4.50;99.90
19437;DHT22;9854;50.968;4.168;2024-03-08T05:56:52;4.50;99.90
19437;DHT22;9854;50.968;4.168;2024-03-08T05:59:18;4.50;99.90
19437;DHT22;9854;50.968;4.168;2024-03-08T06:01:44;4.40;99.90
19437;DHT22;9854;50.968;4.168;2024-03-08T06:04:11;4.40;99.90
19437;DHT22;9854;50.968;4.168;2024-03-08T06:06:37;4.60;99.90
19437;DHT22;9854;50.968;4.168;2024-03-08T06:09:03;4.50;99.90
19437;DHT22;9854;50.968;4.168;2024-03-08T06:11:35;4.50;99.90
19437;DHT22;9854;50.968;4.168;2024-03-08T06:14:00;4.40;99.90
19437;DHT22;9854;50.968;4.168;2024-03-08T06:16:28;4.40;99.90
19437;DHT22;9854;50.968;4.168;2024-03-08T06:18:57;4.30;99.90
19437;DHT22;9854;50.968;4.168;2024-03-08T06:21:26;4.20;99.90
19437;DHT22;9854;50.968;4.168;2024-03-08T06:23:55;4.30;99.90
19437;DHT22;9854;50.968;4.168;2024-03-08T06:26:23;4.40;99.90
19437;DHT22;9854;50.968;4.168;2024-03-08T06:28:52;4.40;99.90
19437;DHT22;9854;50.968;4.168;2024-03-08T06:31:20;4.30;99.90
19437;DHT22;9854;50.968;4.168;2024-03-08T06:33:47;4.30;99.90
19437;DHT22;9854;50.968;4.168;2024-03-08T06:36:16;4.30;99.90
19437;DHT22;9854;50.968;4.168;2024-03-08T06:38:45;4.30;99.90
19437;DHT22;9854;50.968;4.168;2024-03-08T06:41:11;4.40;99.90
19437;DHT22;9854;50.968;4.168;2024-03-08T06:43:46;4.40;99.90
19437;DHT22;9854;50.968;4.168;2024-03-08T06:46:16;4.40;99.90
19437;DHT22;9854;50.968;4.168;2024-03-08T06:48:41;4.40;99.90
19437;DHT22;9854;50.968;4.168;2024-03-08T06:51:07;4.40;99.90
19437;DHT22;9854;50.968;4.168;2024-03-08T06:53:33;4.40;99.90
19437;DHT22;9854;50.968;4.168;2024-03-08T06:56:01;4.40;99.90
19437;DHT22;9854;50.968;4.168;2024-03-08T06:58:27;4.40;99.90
19437;DHT22;9854;50.968;4.168;2024-03-08T07:00:53;4.40;99.90
19437;DHT22;9854;50.968;4.168;2024-03-08T07:03:19;4.40;99.90
19437;DHT22;9854;50.968;4.168;2024-03-08T07:05:50;4.50;99.90
19437;DHT22;9854;50.968;4.168;2024-03-08T07:08:15;4.50;99.90
19437;DHT22;9854;50.968;4.168;2024-03-08T07:10:42;4.60;99.90
19437;DHT22;9854;50.968;4.168;2024-03-08T07:13:08;4.60;99.90
19437;DHT22;9854;50.968;4.168;2024-03-08T07:15:34;4.60;99.90
19437;DHT22;9854;50.968;4.168;2024-03-08T07:18:01;4.70;99.90
19437;DHT22;9854;50.968;4.168;2024-03-08T07:20:27;4.70;99.90
19437;DHT22;9854;50.968;4.168;2024-03-08T07:22:54;4.80;99.90
19437;DHT22;9854;50.968;4.168;2024-03-08T07:25:20;4.80;99.90
19437;DHT22;9854;50.968;4.168;2024-03-08T07:27:53;4.80;99.90
19437;DHT22;9854;50.968;4.168;2024-03-08T07:30:25;4.80;99.90
19437;DHT22;9854;50.968;4.168;2024-03-08T07:33:09;4.90;99.90
19437;DHT22;9854;50.968;4.168;2024-03-08T07:35:38;5.00;99.90
19437;DHT22;9854;50.968;4.168;2024-03-08T07:38:06;5.20;99.90
19437;DHT22;9854;50.968;4.168;2024-03-08T07:40:36;5.10;99.90
19437;DHT22;9854;50.968;4.168;2024-03-08T07:43:04;5.20;99.90
19437;DHT22;9854;50.968;4.168;2024-03-08T07:45:30;5.30;99.90
19437;DHT22;9854;50.968;4.168;2024-03-08T07:47:56;5.40;99.90
19437;DHT22;9854;50.968;4.168;2024-03-08T07:50:22;5.40;99.90
19437;DHT22;9854;50.968;4.168;2024-03-08T07:52:50;5.40;99.90
19437;DHT22;9854;50.968;4.168;2024-03-08T07:55:16;5.60;99.90
19437;DHT22;9854;50.968;4.168;2024-03-08T07:57:42;5.60;99.90
19437;DHT22;9854;50.968;4.168;2024-03-08T08:00:10;5.70;99.90
19437;DHT22;9854;50.968;4.168;2024-03-08T08:02:36;5.70;99.90
19437;DHT22;9854;50.968;4.168;2024-03-08T08:05:02;5.60;99.90
19437;DHT22;9854;50.968;4.168;2024-03-08T08:07:29;5.90;99.90
19437;DHT22;9854;50.968;4.168;2024-03-08T08:09:57;5.80;99.90
19437;DHT22;9854;50.968;4.168;2024-03-08T08:12:23;5.80;99.90
19437;DHT22;9854;50.968;4.168;2024-03-08T08:14:48;5.80;99.90
19437;DHT22;9854;50.968;4.168;2024-03-08T08:17:18;6.20;99.90
19437;DHT22;9854;50.968;4.168;2024-03-08T08:19:44;6.00;99.90
19437;DHT22;9854;50.968;4.168;2024-03-08T08:22:12;6.10;99.90
19437;DHT22;9854;50.968;4.168;2024-03-08T08:24:37;6.20;99.90
19437;DHT22;9854;50.968;4.168;2024-03-08T08:27:06;6.30;99.90
19437;DHT22;9854;50.968;4.168;2024-03-08T08:29:32;6.40;99.90
19437;DHT22;9854;50.968;4.168;2024-03-08T08:31:58;6.20;99.90
19437;DHT22;9854;50.968;4.168;2024-03-08T08:34:27;6.20;99.90
19437;DHT22;9854;50.968;4.168;2024-03-08T08:36:55;6.30;99.90
19437;DHT22;9854;50.968;4.168;2024-03-08T08:39:21;6.40;99.90
19437;DHT22;9854;50.968;4.168;2024-03-08T08:41:48;6.50;99.90
19437;DHT22;9854;50.968;4.168;2024-03-08T08:44:14;6.60;99.90
19437;DHT22;9854;50.968;4.168;2024-03-08T08:46:40;6.60;99.90
19437;DHT22;9854;50.968;4.168;2024-03-08T08:49:06;6.70;99.90
19437;DHT22;9854;50.968;4.168;2024-03-08T08:51:36;6.70;99.90
19437;DHT22;9854;50.968;4.168;2024-03-08T08:54:04;6.80;99.90
19437;DHT22;9854;50.968;4.168;2024-03-08T08:56:34;6.90;99.90
19437;DHT22;9854;50.968;4.168;2024-03-08T08:59:00;6.90;99.90
19437;DHT22;9854;50.968;4.168;2024-03-08T09:01:26;7.00;99.90
19437;DHT22;9854;50.968;4.168;2024-03-08T09:03:52;7.00;99.90
19437;DHT22;9854;50.968;4.168;2024-03-08T09:06:21;7.00;99.90
19437;DHT22;9854;50.968;4.168;2024-03-08T09:08:50;7.00;99.90
19437;DHT22;9854;50.968;4.168;2024-03-08T09:11:16;7.10;99.90
19437;DHT22;9854;50.968;4.168;2024-03-08T09:13:44;7.10;99.90
19437;DHT22;9854;50.968;4.168;2024-03-08T09:16:11;7.40;99.90
19437;DHT22;9854;50.968;4.168;2024-03-08T09:18:42;7.30;99.90
19437;DHT22;9854;50.968;4.168;2024-03-08T09:21:07;7.30;99.90
19437;DHT22;9854;50.968;4.168;2024-03-08T09:23:36;7.50;99.90
19437;DHT22;9854;50.968;4.168;2024-03-08T09:26:02;7.90;99.90
19437;DHT22;9854;50.968;4.168;2024-03-08T09:28:31;7.90;99.90
19437;DHT22;9854;50.968;4.168;2024-03-08T09:30:57;7.90;99.90
19437;DHT22;9854;50.968;4.168;2024-03-08T09:33:24;8.00;99.90
19437;DHT22;9854;50.968;4.168;2024-03-08T09:35:49;8.00;99.90
19437;DHT22;9854;50.968;4.168;2024-03-08T09:38:16;8.10;99.90
19437;DHT22;9854;50.968;4.168;2024-03-08T09:40:42;8.10;99.90
19437;DHT22;9854;50.968;4.168;2024-03-08T09:43:11;8.30;99.90
19437;DHT22;9854;50.968;4.168;2024-03-08T09:45:37;8.40;99.90
19437;DHT22;9854;50.968;4.168;2024-03-08T09:48:10;8.40;99.90
19437;DHT22;9854;50.968;4.168;2024-03-08T09:50:42;8.60;99.90
19437;DHT22;9854;50.968;4.168;2024-03-08T09:53:08;8.60;99.90
19437;DHT22;9854;50.968;4.168;2024-03-08T09:55:38;8.80;99.90
19437;DHT22;9854;50.968;4.168;2024-03-08T09:58:08;8.90;99.90
19437;DHT22;9854;50.968;4.168;2024-03-08T10:00:58;9.00;99.90
19437;DHT22;9854;50.968;4.168;2024-03-08T10:03:24;9.00;99.90
19437;DHT22;9854;50.968;4.168;2024-03-08T10:05:55;8.90;99.90
19437;DHT22;9854;50.968;4.168;2024-03-08T10:08:22;9.00;99.90
19437;DHT22;9854;50.968;4.168;2024-03-08T10:10:47;9.10;99.90
19437;DHT22;9854;50.968;4.168;2024-03-08T10:13:15;9.40;99.90
19437;DHT22;9854;50.968;4.168;2024-03-08T10:15:42;9.40;99.90
19437;DHT22;9854;50.968;4.168;2024-03-08T10:18:09;9.40;99.90
19437;DHT22;9854;50.968;4.168;2024-03-08T10:20:38;9.30;99.90
19437;DHT22;9854;50.968;4.168;2024-03-08T10:23:06;9.30;99.90
19437;DHT22;9854;50.968;4.168;2024-03-08T10:25:35;9.50;99.90
19437;DHT22;9854;50.968;4.168;2024-03-08T10:28:03;9.50;99.90
19437;DHT22;9854;50.968;4.168;2024-03-08T10:30:30;9.60;99.90
19437;DHT22;9854;50.968;4.168;2024-03-08T10:32:58;9.60;99.90
19437;DHT22;9854;50.968;4.168;2024-03-08T10:35:24;9.70;99.90
19437;DHT22;9854;50.968;4.168;2024-03-08T10:37:52;9.70;99.90
19437;DHT22;9854;50.968;4.168;2024-03-08T10:40:29;10.10;99.90
19437;DHT22;9854;50.968;4.168;2024-03-08T10:43:00;10.30;99.90
19437;DHT22;9854;50.968;4.168;2024-03-08T10:45:36;10.60;99.90
19437;DHT22;9854;50.968;4.168;2024-03-08T10:50:49;10.50;99.90
19437;DHT22;9854;50.968;4.168;2024-03-08T10:53:20;10.60;99.90
19437;DHT22;9854;50.968;4.168;2024-03-08T10:55:50;10.70;99.90
19437;DHT22;9854;50.968;4.168;2024-03-08T10:58:21;10.90;99.90
19437;DHT22;9854;50.968;4.168;2024-03-08T11:00:48;11.10;99.90
19437;DHT22;9854;50.968;4.168;2024-03-08T11:06:30;11.30;99.90
19437;DHT22;9854;50.968;4.168;2024-03-08T11:08:56;11.50;99.90
19437;DHT22;9854;50.968;4.168;2024-03-08T11:11:33;11.50;99.90
19437;DHT22;9854;50.968;4.168;2024-03-08T11:14:03;11.60;99.90
19437;DHT22;9854;50.968;4.168;2024-03-08T11:19:07;11.80;99.90
19437;DHT22;9854;50.968;4.168;2024-03-08T11:21:57;12.00;99.90
19437;DHT22;9854;50.968;4.168;2024-03-08T11:24:23;12.30;99.90
19437;DHT22;9854;50.968;4.168;2024-03-08T11:26:49;12.10;99.90
19437;DHT22;9854;50.968;4.168;2024-03-08T11:32:05;11.90;99.90
19437;DHT22;9854;50.968;4.168;2024-03-08T11:34:32;11.90;99.90
19437;DHT22;9854;50.968;4.168;2024-03-08T11:37:03;12.00;99.90
19437;DHT22;9854;50.968;4.168;2024-03-08T11:39:28;12.20;99.90
19437;DHT22;9854;50.968;4.168;2024-03-08T11:41:56;12.30;99.90
19437;DHT22;9854;50.968;4.168;2024-03-08T11:44:24;12.60;99.90
19437;DHT22;9854;50.968;4.168;2024-03-08T11:46:53;12.50;99.90
19437;DHT22;9854;50.968;4.168;2024-03-08T11:49:19;12.50;99.90
19437;DHT22;9854;50.968;4.168;2024-03-08T11:51:46;12.50;99.90
19437;DHT22;9854;50.968;4.168;2024-03-08T11:54:13;12.40;99.90
19437;DHT22;9854;50.968;4.168;2024-03-08T11:56:38;12.60;99.90
19437;DHT22;9854;50.968;4.168;2024-03-08T11:59:05;12.70;99.90
19437;DHT22;9854;50.968;4.168;2024-03-08T12:01:38;12.40;99.90
19437;DHT22;9854;50.968;4.168;2024-03-08T12:04:10;12.40;99.90
19437;DHT22;9854;50.968;4.168;2024-03-08T12:06:38;12.80;99.90
19437;DHT22;9854;50.968;4.168;2024-03-08T12:09:11;12.80;99.90
19437;DHT22;9854;50.968;4.168;2024-03-08T12:11:39;12.90;99.90
19437;DHT22;9854;50.968;4.168;2024-03-08T12:14:05;12.70;99.90
19437;DHT22;9854;50.968;4.168;2024-03-08T12:16:34;12.80;99.90
19437;DHT22;9854;50.968;4.168;2024-03-08T12:19:03;13.00;99.90
19437;DHT22;9854;50.968;4.168;2024-03-08T12:21:31;13.20;99.90
19437;DHT22;9854;50.968;4.168;2024-03-08T12:24:08;13.30;99.90
19437;DHT22;9854;50.968;4.168;2024-03-08T12:26:38;13.30;99.90
19437;DHT22;9854;50.968;4.168;2024-03-08T12:29:24;13.30;99.90
19437;DHT22;9854;50.968;4.168;2024-03-08T12:31:55;13.30;99.90
19437;DHT22;9854;50.968;4.168;2024-03-08T12:34:21;13.30;99.90
19437;DHT22;9854;50.968;4.168;2024-03-08T12:36:51;13.60;99.90
19437;DHT22;9854;50.968;4.168;2024-03-08T12:39:21;13.90;99.90
19437;DHT22;9854;50.968;4.168;2024-03-08T12:41:48;14.00;99.90
19437;DHT22;9854;50.968;4.168;2024-03-08T12:44:17;14.00;99.90
19437;DHT22;9854;50.968;4.168;2024-03-08T12:46:47;14.10;99.90
19437;DHT22;9854;50.968;4.168;2024-03-08T12:49:16;14.20;99.90
19437;DHT22;9854;50.968;4.168;2024-03-08T12:51:47;14.30;99.90
19437;DHT22;9854;50.968;4.168;2024-03-08T12:54:13;14.20;99.90
19437;DHT22;9854;50.968;4.168;2024-03-08T12:56:44;14.30;99.90
19437;DHT22;9854;50.968;4.168;2024-03-08T12:59:12;14.50;99.90
19437;DHT22;9854;50.968;4.168;2024-03-08T13:01:41;14.70;99.90
19437;DHT22;9854;50.968;4.168;2024-03-08T13:04:08;14.60;99.90
19437;DHT22;9854;50.968;4.168;2024-03-08T13:06:36;14.70;99.90
19437;DHT22;9854;50.968;4.168;2024-03-08T13:09:05;14.80;99.90
19437;DHT22;9854;50.968;4.168;2024-03-08T13:11:31;15.10;99.90
19437;DHT22;9854;50.968;4.168;2024-03-08T13:14:04;14.80;99.90
19437;DHT22;9854;50.968;4.168;2024-03-08T13:16:35;15.00;99.90
19437;DHT22;9854;50.968;4.168;2024-03-08T13:19:01;14.80;99.90
19437;DHT22;9854;50.968;4.168;2024-03-08T13:21:29;15.10;99.90
19437;DHT22;9854;50.968;4.168;2024-03-08T13:23:55;15.50;99.90
19437;DHT22;9854;50.968;4.168;2024-03-08T13:26:21;15.80;99.90
19437;DHT22;9854;50.968;4.168;2024-03-08T13:28:48;15.80;99.90
19437;DHT22;9854;50.968;4.168;2024-03-08T13:31:24;15.80;99.90
19437;DHT22;9854;50.968;4.168;2024-03-08T13:33:50;15.50;99.90
19437;DHT22;9854;50.968;4.168;2024-03-08T13:36:17;15.30;99.90
19437;DHT22;9854;50.968;4.168;2024-03-08T13:38:49;15.00;99.90
19437;DHT22;9854;50.968;4.168;2024-03-08T13:41:19;14.90;99.90
19437;DHT22;9854;50.968;4.168;2024-03-08T13:43:48;14.90;99.90
19437;DHT22;9854;50.968;4.168;2024-03-08T13:46:15;15.30;99.90
19437;DHT22;9854;50.968;4.168;2024-03-08T13:48:43;15.20;99.90
19437;DHT22;9854;50.968;4.168;2024-03-08T13:51:09;15.20;99.90
19437;DHT22;9854;50.968;4.168;2024-03-08T13:53:37;15.30;99.90
19437;DHT22;9854;50.968;4.168;2024-03-08T13:56:04;15.20;99.90
19437;DHT22;9854;50.968;4.168;2024-03-08T13:58:31;15.40;99.90
19437;DHT22;9854;50.968;4.168;2024-03-08T14:00:57;15.80;99.90
19437;DHT22;9854;50.968;4.168;2024-03-08T14:03:22;15.70;99.90
19437;DHT22;9854;50.968;4.168;2024-03-08T14:05:50;15.80;99.90
19437;DHT22;9854;50.968;4.168;2024-03-08T14:08:16;15.90;99.90
19437;DHT22;9854;50.968;4.168;2024-03-08T14:10:43;15.70;99.90
19437;DHT22;9854;50.968;4.168;2024-03-08T14:13:12;15.70;99.90
19437;DHT22;9854;50.968;4.168;2024-03-08T14:15:41;15.80;99.90
19437;DHT22;9854;50.968;4.168;2024-03-08T14:18:07;16.20;99.90
19437;DHT22;9854;50.968;4.168;2024-03-08T14:20:33;16.20;99.90
19437;DHT22;9854;50.968;4.168;2024-03-08T14:23:01;16.20;99.90
19437;DHT22;9854;50.968;4.168;2024-03-08T14:25:26;16.10;99.90
19437;DHT22;9854;50.968;4.168;2024-03-08T14:27:57;16.10;99.90
19437;DHT22;9854;50.968;4.168;2024-03-08T14:30:27;16.60;99.90
19437;DHT22;9854;50.968;4.168;2024-03-08T14:33:06;16.40;99.90
19437;DHT22;9854;50.968;4.168;2024-03-08T14:35:35;16.20;99.90
19437;DHT22;9854;50.968;4.168;2024-03-08T14:38:04;16.60;99.90
19437;DHT22;9854;50.968;4.168;2024-03-08T14:40:30;16.70;99.90
19437;DHT22;9854;50.968;4.168;2024-03-08T14:42:56;17.00;99.90
19437;DHT22;9854;50.968;4.168;2024-03-08T14:45:22;16.80;99.90
19437;DHT22;9854;50.968;4.168;2024-03-08T14:47:51;17.20;99.90
19437;DHT22;9854;50.968;4.168;2024-03-08T14:50:18;17.40;99.90
19437;DHT22;9854;50.968;4.168;2024-03-08T14:52:46;16.80;99.90
19437;DHT22;9854;50.968;4.168;2024-03-08T14:55:20;16.60;99.90
19437;DHT22;9854;50.968;4.168;2024-03-08T14:57:50;16.20;99.90
19437;DHT22;9854;50.968;4.168;2024-03-08T15:00:20;16.10;99.90
19437;DHT22;9854;50.968;4.168;2024-03-08T15:02:59;16.40;99.90
19437;DHT22;9854;50.968;4.168;2024-03-08T15:05:27;16.40;99.90
19437;DHT22;9854;50.968;4.168;2024-03-08T15:07:54;16.20;99.90
19437;DHT22;9854;50.968;4.168;2024-03-08T15:10:20;16.50;99.90
19437;DHT22;9854;50.968;4.168;2024-03-08T15:12:49;16.60;99.90
19437;DHT22;9854;50.968;4.168;2024-03-08T15:15:20;16.60;99.90
19437;DHT22;9854;50.968;4.168;2024-03-08T15:17:48;16.90;99.90
19437;DHT22;9854;50.968;4.168;2024-03-08T15:20:14;16.40;99.90
19437;DHT22;9854;50.968;4.168;2024-03-08T15:22:47;16.20;99.90
19437;DHT22;9854;50.968;4.168;2024-03-08T15:25:13;16.30;99.90
19437;DHT22;9854;50.968;4.168;2024-03-08T15:27:46;16.30;99.90
19437;DHT22;9854;50.968;4.168;2024-03-08T15:30:15;16.60;99.90
19437;DHT22;9854;50.968;4.168;2024-03-08T15:32:46;17.10;99.90
19437;DHT22;9854;50.968;4.168;2024-03-08T15:35:13;17.40;99.90
19437;DHT22;9854;50.968;4.168;2024-03-08T15:37:43;17.60;99.90
19437;DHT22;9854;50.968;4.168;2024-03-08T15:40:11;17.70;99.90
19437;DHT22;9854;50.968;4.168;2024-03-08T15:45:16;18.00;99.90
19437;DHT22;9854;50.968;4.168;2024-03-08T15:47:43;18.00;99.90
19437;DHT22;9854;50.968;4.168;2024-03-08T15:50:10;18.20;99.90
19437;DHT22;9854;50.968;4.168;2024-03-08T15:52:42;18.20;99.90
19437;DHT22;9854;50.968;4.168;2024-03-08T15:55:13;18.60;99.90
19437;DHT22;9854;50.968;4.168;2024-03-08T15:57:41;18.60;99.90
19437;DHT22;9854;50.968;4.168;2024-03-08T16:00:07;18.70;99.90
19437;DHT22;9854;50.968;4.168;2024-03-08T16:02:44;18.70;99.90
19437;DHT22;9854;50.968;4.168;2024-03-08T16:05:09;19.00;99.90
19437;DHT22;9854;50.968;4.168;2024-03-08T16:07:37;19.10;99.90
19437;DHT22;9854;50.968;4.168;2024-03-08T16:10:07;18.70;99.90
19437;DHT22;9854;50.968;4.168;2024-03-08T16:12:35;18.50;99.90
19437;DHT22;9854;50.968;4.168;2024-03-08T16:15:03;18.50;99.90